createdAt,value
2018-05-07T00:00:57.399Z,0
2018-05-07T00:01:57.397Z,0
2018-05-07T00:02:57.435Z,0
2018-05-07T00:03:57.470Z,0
2018-05-07T00:04:57.439Z,0
2018-05-07T00:05:57.522Z,0
2018-05-07T00:06:57.472Z,0
2018-05-07T00:07:57.550Z,0
2018-05-07T00:08:57.525Z,0
2018-05-07T00:09:57.522Z,0
2018-05-07T00:10:57.443Z,0
2018-05-07T00:11:57.387Z,0
2018-05-07T00:12:57.502Z,0
2018-05-07T00:13:57.511Z,0
2018-05-07T00:14:57.471Z,0
2018-05-07T00:15:57.379Z,0
2018-05-07T00:16:57.472Z,0
2018-05-07T00:17:57.415Z,0
2018-05-07T00:18:57.411Z,0
2018-05-07T00:19:57.478Z,0
2018-05-07T00:20:57.480Z,0
2018-05-07T00:21:57.380Z,0
2018-05-07T00:22:57.415Z,0
2018-05-07T00:23:57.416Z,0
2018-05-07T00:24:57.378Z,0
2018-05-07T00:25:57.365Z,0
2018-05-07T00:26:57.399Z,0
2018-05-07T00:27:57.456Z,0
2018-05-07T00:28:57.388Z,0
2018-05-07T00:29:57.404Z,0
2018-05-07T00:30:57.429Z,0
2018-05-07T00:31:57.447Z,0
2018-05-07T00:32:57.390Z,0
2018-05-07T00:33:57.450Z,0
2018-05-07T00:34:57.550Z,0
2018-05-07T00:35:57.443Z,0
2018-05-07T00:36:57.516Z,0
2018-05-07T00:37:57.524Z,0
2018-05-07T00:38:57.525Z,0
2018-05-07T00:39:57.492Z,0
2018-05-07T00:40:57.519Z,0
2018-05-07T00:41:57.471Z,0
2018-05-07T00:42:57.567Z,0
2018-05-07T00:43:57.461Z,0
2018-05-07T00:44:57.531Z,0
2018-05-07T00:45:57.512Z,0
2018-05-07T00:46:57.495Z,0
2018-05-07T00:47:57.538Z,0
2018-05-07T00:48:57.513Z,0
2018-05-07T00:49:57.470Z,0
2018-05-07T00:50:57.501Z,0
2018-05-07T00:51:57.474Z,0
2018-05-07T00:52:57.462Z,0
2018-05-07T00:53:57.530Z,0
2018-05-07T00:54:57.474Z,0
2018-05-07T00:55:57.479Z,0
2018-05-07T00:56:57.418Z,0
2018-05-07T00:57:57.423Z,0
2018-05-07T00:58:57.427Z,0
2018-05-07T00:59:57.496Z,0
2018-05-07T01:00:57.501Z,0
2018-05-07T01:01:57.423Z,0
2018-05-07T01:02:57.390Z,0
2018-05-07T01:03:57.465Z,0
2018-05-07T01:04:57.410Z,0
2018-05-07T01:05:57.431Z,0
2018-05-07T01:06:57.507Z,0
2018-05-07T01:07:57.555Z,0
2018-05-07T01:08:57.430Z,0
2018-05-07T01:09:57.413Z,0
2018-05-07T01:10:57.474Z,0
2018-05-07T01:11:57.512Z,0
2018-05-07T01:12:57.520Z,0
2018-05-07T01:13:57.536Z,0
2018-05-07T01:14:57.539Z,0
2018-05-07T01:15:57.488Z,0
2018-05-07T01:16:57.508Z,0
2018-05-07T01:17:57.525Z,0
2018-05-07T01:18:57.485Z,0
2018-05-07T01:19:57.554Z,0
2018-05-07T01:20:57.548Z,0
2018-05-07T01:21:57.517Z,0
2018-05-07T01:22:57.542Z,0
2018-05-07T01:23:57.542Z,0
2018-05-07T01:24:57.563Z,0
2018-05-07T01:25:57.516Z,0
2018-05-07T01:26:57.456Z,0
2018-05-07T01:27:57.521Z,0
2018-05-07T01:28:57.486Z,0
2018-05-07T01:29:57.456Z,0
2018-05-07T01:30:57.457Z,0
2018-05-07T01:31:57.526Z,0
2018-05-07T01:32:57.525Z,0
2018-05-07T01:33:57.525Z,0
2018-05-07T01:34:57.531Z,0
2018-05-07T01:35:57.463Z,0
2018-05-07T01:36:57.557Z,0
2018-05-07T01:37:57.564Z,0
2018-05-07T01:38:57.528Z,0
2018-05-07T01:39:57.447Z,0
2018-05-07T01:40:57.527Z,0
2018-05-07T01:41:57.529Z,0
2018-05-07T01:42:57.530Z,0
2018-05-07T01:43:57.573Z,0
2018-05-07T01:44:57.516Z,0
2018-05-07T01:45:57.491Z,0
2018-05-07T01:46:57.489Z,0
2018-05-07T01:47:57.460Z,0
2018-05-07T01:48:57.455Z,0
2018-05-07T01:49:57.527Z,0
2018-05-07T01:50:57.461Z,0
2018-05-07T01:51:57.529Z,0
2018-05-07T01:52:57.442Z,0
2018-05-07T01:53:57.497Z,0
2018-05-07T01:54:57.529Z,0
2018-05-07T01:55:57.491Z,0
2018-05-07T01:56:57.493Z,0
2018-05-07T01:57:57.442Z,0
2018-05-07T01:58:57.496Z,0
2018-05-07T01:59:57.540Z,0
2018-05-07T02:00:57.566Z,0
2018-05-07T02:01:57.540Z,0
2018-05-07T02:02:57.505Z,0
2018-05-07T02:03:57.508Z,0
2018-05-07T02:04:57.524Z,0
2018-05-07T02:05:57.445Z,0
2018-05-07T02:06:57.495Z,0
2018-05-07T02:07:57.550Z,0
2018-05-07T02:08:57.482Z,0
2018-05-07T02:09:57.560Z,0
2018-05-07T02:10:57.548Z,0
2018-05-07T02:11:57.485Z,0
2018-05-07T02:12:57.486Z,0
2018-05-07T02:13:57.486Z,0
2018-05-07T02:14:57.482Z,0
2018-05-07T02:15:57.552Z,0
2018-05-07T02:16:57.595Z,0
2018-05-07T02:17:57.526Z,0
2018-05-07T02:18:57.525Z,0
2018-05-07T02:19:57.555Z,0
2018-05-07T02:20:57.556Z,0
2018-05-07T02:21:57.461Z,0
2018-05-07T02:22:57.560Z,0
2018-05-07T02:23:57.536Z,0
2018-05-07T02:24:57.557Z,0
2018-05-07T02:25:57.461Z,0
2018-05-07T02:26:57.522Z,0
2018-05-07T02:27:57.515Z,0
2018-05-07T02:28:57.535Z,0
2018-05-07T02:29:57.461Z,0
2018-05-07T02:30:57.565Z,0
2018-05-07T02:31:57.527Z,0
2018-05-07T02:32:57.523Z,0
2018-05-07T02:33:57.530Z,0
2018-05-07T02:34:57.563Z,0
2018-05-07T02:35:57.536Z,0
2018-05-07T02:36:57.601Z,0
2018-05-07T02:37:57.589Z,0
2018-05-07T02:38:57.677Z,0
2018-05-07T02:39:57.547Z,0
2018-05-07T02:40:57.493Z,0
2018-05-07T02:41:57.610Z,0
2018-05-07T02:42:57.567Z,0
2018-05-07T02:43:57.568Z,0
2018-05-07T02:44:57.547Z,0
2018-05-07T02:45:57.470Z,0
2018-05-07T02:46:57.493Z,0
2018-05-07T02:47:57.537Z,0
2018-05-07T02:48:57.538Z,0
2018-05-07T02:49:57.475Z,0
2018-05-07T02:50:57.493Z,0
2018-05-07T02:51:57.500Z,0
2018-05-07T02:52:57.619Z,0
2018-05-07T02:53:57.617Z,0
2018-05-07T02:54:57.531Z,0
2018-05-07T02:55:57.577Z,0
2018-05-07T02:56:57.617Z,0
2018-05-07T02:57:57.556Z,0
2018-05-07T02:58:57.621Z,0
2018-05-07T02:59:57.614Z,0
2018-05-07T03:00:57.576Z,0
2018-05-07T03:01:57.520Z,0
2018-05-07T03:02:57.546Z,0
2018-05-07T03:03:57.581Z,0
2018-05-07T03:04:57.584Z,0
2018-05-07T03:05:57.576Z,0
2018-05-07T03:06:57.537Z,0
2018-05-07T03:07:57.515Z,0
2018-05-07T03:08:57.592Z,0
2018-05-07T03:09:57.588Z,0
2018-05-07T03:10:57.519Z,0
2018-05-07T03:11:57.616Z,0
2018-05-07T03:12:57.599Z,0
2018-05-07T03:13:57.591Z,0
2018-05-07T03:14:57.525Z,0
2018-05-07T03:15:57.597Z,0
2018-05-07T03:16:57.524Z,0
2018-05-07T03:17:57.627Z,0
2018-05-07T03:18:57.626Z,0
2018-05-07T03:19:57.558Z,0
2018-05-07T03:20:57.516Z,0
2018-05-07T03:21:57.621Z,0
2018-05-07T03:22:57.639Z,0
2018-05-07T03:23:57.499Z,0
2018-05-07T03:24:57.629Z,5
2018-05-07T03:25:57.625Z,5
2018-05-07T03:26:57.611Z,5
2018-05-07T03:27:57.600Z,5
2018-05-07T03:28:57.536Z,5
2018-05-07T03:29:57.532Z,5
2018-05-07T03:30:57.533Z,11
2018-05-07T03:31:57.538Z,11
2018-05-07T03:32:57.532Z,11
2018-05-07T03:33:57.604Z,11
2018-05-07T03:34:57.604Z,16
2018-05-07T03:35:57.613Z,16
2018-05-07T03:36:57.537Z,16
2018-05-07T03:37:57.528Z,22
2018-05-07T03:38:57.639Z,22
2018-05-07T03:39:57.539Z,28
2018-05-07T03:40:57.576Z,28
2018-05-07T03:41:57.540Z,28
2018-05-07T03:42:57.572Z,33
2018-05-07T03:43:57.637Z,33
2018-05-07T03:44:57.580Z,39
2018-05-07T03:45:57.643Z,39
2018-05-07T03:46:57.577Z,45
2018-05-07T03:47:57.612Z,50
2018-05-07T03:48:57.552Z,50
2018-05-07T03:49:57.550Z,56
2018-05-07T03:50:57.551Z,56
2018-05-07T03:51:57.613Z,61
2018-05-07T03:52:57.549Z,67
2018-05-07T03:53:57.614Z,67
2018-05-07T03:54:57.615Z,73
2018-05-07T03:55:57.548Z,78
2018-05-07T03:56:57.551Z,84
2018-05-07T03:57:57.614Z,84
2018-05-07T03:58:57.549Z,90
2018-05-07T03:59:57.620Z,95
2018-05-07T04:00:57.621Z,101
2018-05-07T04:01:57.651Z,101
2018-05-07T04:02:57.623Z,106
2018-05-07T04:03:57.552Z,112
2018-05-07T04:04:57.616Z,118
2018-05-07T04:05:57.554Z,123
2018-05-07T04:06:57.618Z,123
2018-05-07T04:07:57.553Z,129
2018-05-07T04:08:57.623Z,135
2018-05-07T04:09:57.559Z,140
2018-05-07T04:10:57.623Z,146
2018-05-07T04:11:57.626Z,151
2018-05-07T04:12:57.551Z,157
2018-05-07T04:13:57.563Z,157
2018-05-07T04:14:57.634Z,163
2018-05-07T04:15:57.558Z,168
2018-05-07T04:16:57.628Z,174
2018-05-07T04:17:57.602Z,180
2018-05-07T04:18:57.525Z,185
2018-05-07T04:19:57.589Z,191
2018-05-07T04:20:57.602Z,191
2018-05-07T04:21:57.596Z,196
2018-05-07T04:22:57.595Z,202
2018-05-07T04:23:57.663Z,208
2018-05-07T04:24:57.669Z,213
2018-05-07T04:25:57.597Z,219
2018-05-07T04:26:57.637Z,225
2018-05-07T04:27:57.672Z,225
2018-05-07T04:28:57.612Z,230
2018-05-07T04:29:57.674Z,236
2018-05-07T04:30:57.635Z,241
2018-05-07T04:31:57.541Z,247
2018-05-07T04:32:57.557Z,253
2018-05-07T04:33:57.657Z,253
2018-05-07T04:34:57.667Z,258
2018-05-07T04:35:57.607Z,264
2018-05-07T04:36:57.672Z,270
2018-05-07T04:37:57.669Z,275
2018-05-07T04:38:57.636Z,281
2018-05-07T04:39:57.596Z,281
2018-05-07T04:40:57.580Z,286
2018-05-07T04:41:57.543Z,292
2018-05-07T04:42:57.598Z,298
2018-05-07T04:43:57.655Z,298
2018-05-07T04:44:57.548Z,303
2018-05-07T04:45:57.677Z,309
2018-05-07T04:46:57.643Z,309
2018-05-07T04:47:57.721Z,315
2018-05-07T04:48:57.660Z,320
2018-05-07T04:49:57.674Z,320
2018-05-07T04:50:57.679Z,326
2018-05-07T04:51:57.647Z,331
2018-05-07T04:52:57.681Z,337
2018-05-07T04:53:57.611Z,343
2018-05-07T04:54:57.557Z,343
2018-05-07T04:55:57.616Z,348
2018-05-07T04:56:57.671Z,354
2018-05-07T04:57:57.617Z,360
2018-05-07T04:58:57.623Z,360
2018-05-07T04:59:57.634Z,365
2018-05-07T05:00:57.661Z,371
2018-05-07T05:01:57.687Z,376
2018-05-07T05:02:57.627Z,376
2018-05-07T05:03:57.564Z,382
2018-05-07T05:04:57.581Z,393
2018-05-07T05:05:57.690Z,393
2018-05-07T05:06:57.661Z,393
2018-05-07T05:07:57.584Z,399
2018-05-07T05:08:57.620Z,405
2018-05-07T05:09:57.675Z,405
2018-05-07T05:10:57.634Z,410
2018-05-07T05:11:57.740Z,416
2018-05-07T05:12:57.686Z,416
2018-05-07T05:13:57.695Z,421
2018-05-07T05:14:57.638Z,427
2018-05-07T05:15:57.694Z,427
2018-05-07T05:16:57.564Z,433
2018-05-07T05:17:57.562Z,438
2018-05-07T05:18:57.628Z,438
2018-05-07T05:19:57.643Z,444
2018-05-07T05:20:57.683Z,444
2018-05-07T05:21:57.701Z,444
2018-05-07T05:22:57.569Z,450
2018-05-07T05:23:57.642Z,450
2018-05-07T05:24:57.711Z,455
2018-05-07T05:25:57.714Z,461
2018-05-07T05:26:57.638Z,461
2018-05-07T05:27:57.611Z,466
2018-05-07T05:28:57.673Z,466
2018-05-07T05:29:57.610Z,472
2018-05-07T05:30:57.672Z,478
2018-05-07T05:31:57.609Z,478
2018-05-07T05:32:57.675Z,489
2018-05-07T05:33:57.605Z,489
2018-05-07T05:34:57.674Z,489
2018-05-07T05:35:57.619Z,495
2018-05-07T05:36:57.683Z,500
2018-05-07T05:37:57.611Z,489
2018-05-07T05:38:57.670Z,495
2018-05-07T05:39:57.628Z,495
2018-05-07T05:40:57.664Z,500
2018-05-07T05:41:57.586Z,669
2018-05-07T05:42:57.586Z,1383
2018-05-07T05:43:57.585Z,1710
2018-05-07T05:44:57.673Z,1698
2018-05-07T05:45:57.589Z,1856
2018-05-07T05:46:57.620Z,2233
2018-05-07T05:47:57.591Z,2953
2018-05-07T05:48:57.681Z,3240
2018-05-07T05:49:57.840Z,2576
2018-05-07T05:50:57.678Z,2036
2018-05-07T05:51:57.681Z,1946
2018-05-07T05:52:57.678Z,2053
2018-05-07T05:53:57.576Z,2626
2018-05-07T05:54:57.677Z,2581
2018-05-07T05:55:57.677Z,1558
2018-05-07T05:56:57.657Z,1479
2018-05-07T05:57:57.698Z,1468
2018-05-07T05:58:57.628Z,1468
2018-05-07T05:59:57.689Z,1468
2018-05-07T06:00:57.694Z,1485
2018-05-07T06:01:57.579Z,1665
2018-05-07T06:02:57.627Z,1625
2018-05-07T06:03:57.736Z,1845
2018-05-07T06:04:57.629Z,1929
2018-05-07T06:05:57.579Z,1991
2018-05-07T06:06:57.628Z,2008
2018-05-07T06:07:57.568Z,2030
2018-05-07T06:08:57.770Z,2030
2018-05-07T06:09:57.593Z,2036
2018-05-07T06:10:57.593Z,2019
2018-05-07T06:11:57.631Z,1980
2018-05-07T06:12:57.592Z,1957
2018-05-07T06:13:57.591Z,1929
2018-05-07T06:14:57.807Z,1895
2018-05-07T06:15:57.632Z,1867
2018-05-07T06:16:57.631Z,1839
2018-05-07T06:17:57.667Z,1805
2018-05-07T06:18:57.717Z,1777
2018-05-07T06:19:57.735Z,1771
2018-05-07T06:20:57.703Z,1732
2018-05-07T06:21:57.727Z,1726
2018-05-07T06:22:57.710Z,1738
2018-05-07T06:23:57.734Z,1766
2018-05-07T06:24:57.673Z,1771
2018-05-07T06:25:57.728Z,1771
2018-05-07T06:26:57.787Z,1794
2018-05-07T06:27:57.634Z,1816
2018-05-07T06:28:57.695Z,1777
2018-05-07T06:29:57.696Z,1726
2018-05-07T06:30:57.631Z,1648
2018-05-07T06:31:57.588Z,1586
2018-05-07T06:32:57.654Z,1530
2018-05-07T06:33:57.648Z,1501
2018-05-07T06:34:57.573Z,1501
2018-05-07T06:35:57.671Z,1496
2018-05-07T06:36:57.695Z,1530
2018-05-07T06:37:57.745Z,1541
2018-05-07T06:38:57.744Z,1541
2018-05-07T06:39:57.624Z,1535
2018-05-07T06:40:57.677Z,1535
2018-05-07T06:41:57.720Z,1541
2018-05-07T06:42:57.748Z,1552
2018-05-07T06:43:57.746Z,1569
2018-05-07T06:44:57.742Z,1625
2018-05-07T06:45:57.822Z,1710
2018-05-07T06:46:57.691Z,1822
2018-05-07T06:47:57.643Z,1963
2018-05-07T06:48:57.635Z,2126
2018-05-07T06:49:57.683Z,2289
2018-05-07T06:50:57.735Z,2441
2018-05-07T06:51:57.649Z,2593
2018-05-07T06:52:57.681Z,2683
2018-05-07T06:53:57.725Z,2767
2018-05-07T06:54:57.704Z,2823
2018-05-07T06:55:57.698Z,2818
2018-05-07T06:56:57.753Z,2829
2018-05-07T06:57:57.720Z,2812
2018-05-07T06:58:57.716Z,2778
2018-05-07T06:59:57.628Z,2773
2018-05-07T07:00:57.638Z,2767
2018-05-07T07:01:57.806Z,2745
2018-05-07T07:02:57.747Z,2739
2018-05-07T07:03:57.721Z,2728
2018-05-07T07:04:57.726Z,2756
2018-05-07T07:05:57.604Z,2806
2018-05-07T07:06:57.640Z,2823
2018-05-07T07:07:57.814Z,2812
2018-05-07T07:08:57.727Z,2801
2018-05-07T07:09:57.639Z,2801
2018-05-07T07:10:57.724Z,2767
2018-05-07T07:11:57.643Z,2705
2018-05-07T07:12:57.723Z,2660
2018-05-07T07:13:57.623Z,2632
2018-05-07T07:14:57.643Z,2587
2018-05-07T07:15:57.725Z,2587
2018-05-07T07:16:57.642Z,2638
2018-05-07T07:17:57.754Z,2733
2018-05-07T07:18:57.753Z,2801
2018-05-07T07:19:57.762Z,2885
2018-05-07T07:20:57.761Z,2964
2018-05-07T07:21:57.647Z,3082
2018-05-07T07:22:57.770Z,3183
2018-05-07T07:23:57.742Z,3240
2018-05-07T07:24:57.776Z,3251
2018-05-07T07:25:57.725Z,3285
2018-05-07T07:26:57.698Z,3296
2018-05-07T07:27:57.781Z,3290
2018-05-07T07:28:57.735Z,3285
2018-05-07T07:29:57.704Z,3273
2018-05-07T07:30:57.636Z,3285
2018-05-07T07:31:57.658Z,3290
2018-05-07T07:32:57.678Z,3324
2018-05-07T07:33:57.767Z,3324
2018-05-07T07:34:57.729Z,3307
2018-05-07T07:35:57.732Z,3318
2018-05-07T07:36:57.737Z,3352
2018-05-07T07:37:57.719Z,3335
2018-05-07T07:38:57.655Z,3268
2018-05-07T07:39:57.713Z,3200
2018-05-07T07:40:57.677Z,3082
2018-05-07T07:41:57.779Z,2936
2018-05-07T07:42:57.757Z,2790
2018-05-07T07:43:57.779Z,2638
2018-05-07T07:44:57.787Z,2536
2018-05-07T07:45:57.789Z,2536
2018-05-07T07:46:57.700Z,2638
2018-05-07T07:47:57.779Z,2829
2018-05-07T07:48:57.790Z,3020
2018-05-07T07:49:57.774Z,3240
2018-05-07T07:50:57.724Z,3436
2018-05-07T07:51:57.739Z,3594
2018-05-07T07:52:57.786Z,3701
2018-05-07T07:53:57.766Z,3796
2018-05-07T07:54:57.701Z,3825
2018-05-07T07:55:57.800Z,3864
2018-05-07T07:56:57.751Z,3853
2018-05-07T07:57:57.672Z,3847
2018-05-07T07:58:57.672Z,3841
2018-05-07T07:59:57.691Z,3853
2018-05-07T08:00:57.788Z,3875
2018-05-07T08:01:57.711Z,3881
2018-05-07T08:02:57.677Z,3909
2018-05-07T08:03:57.845Z,3931
2018-05-07T08:04:57.773Z,4010
2018-05-07T08:05:57.744Z,4072
2018-05-07T08:06:57.769Z,3971
2018-05-07T08:07:57.731Z,3808
2018-05-07T08:08:57.725Z,3583
2018-05-07T08:09:57.659Z,3318
2018-05-07T08:10:57.680Z,3076
2018-05-07T08:11:57.728Z,2790
2018-05-07T08:12:57.760Z,2536
2018-05-07T08:13:57.728Z,2323
2018-05-07T08:14:57.779Z,2227
2018-05-07T08:15:57.762Z,2199
2018-05-07T08:16:57.710Z,2210
2018-05-07T08:17:57.713Z,2238
2018-05-07T08:18:57.714Z,2278
2018-05-07T08:19:57.783Z,2334
2018-05-07T08:20:57.720Z,2413
2018-05-07T08:21:57.782Z,2548
2018-05-07T08:22:57.720Z,2739
2018-05-07T08:23:57.780Z,3003
2018-05-07T08:24:57.721Z,3335
2018-05-07T08:25:57.679Z,3678
2018-05-07T08:26:57.720Z,3993
2018-05-07T08:27:57.705Z,4235
2018-05-07T08:28:57.760Z,4410
2018-05-07T08:29:57.710Z,4522
2018-05-07T08:30:57.767Z,4556
2018-05-07T08:31:57.696Z,4539
2018-05-07T08:32:57.755Z,4522
2018-05-07T08:33:57.770Z,4500
2018-05-07T08:34:57.808Z,4494
2018-05-07T08:35:57.768Z,4505
2018-05-07T08:36:57.806Z,4511
2018-05-07T08:37:57.777Z,4545
2018-05-07T08:38:57.768Z,4573
2018-05-07T08:39:57.663Z,4595
2018-05-07T08:40:57.667Z,4606
2018-05-07T08:41:57.742Z,4612
2018-05-07T08:42:57.717Z,4640
2018-05-07T08:43:57.775Z,4663
2018-05-07T08:44:57.722Z,4719
2018-05-07T08:45:57.662Z,4781
2018-05-07T08:46:57.667Z,4792
2018-05-07T08:47:57.737Z,4764
2018-05-07T08:48:57.802Z,4741
2018-05-07T08:49:57.734Z,4747
2018-05-07T08:50:57.869Z,4702
2018-05-07T08:51:57.800Z,4680
2018-05-07T08:52:57.833Z,4651
2018-05-07T08:53:57.799Z,4646
2018-05-07T08:54:57.744Z,4657
2018-05-07T08:55:57.801Z,4719
2018-05-07T08:56:57.742Z,4708
2018-05-07T08:57:57.714Z,4719
2018-05-07T08:58:57.769Z,4708
2018-05-07T08:59:57.775Z,4713
2018-05-07T09:00:57.811Z,4685
2018-05-07T09:01:57.847Z,4713
2018-05-07T09:02:57.841Z,4719
2018-05-07T09:03:57.776Z,4702
2018-05-07T09:04:57.834Z,4651
2018-05-07T09:05:57.783Z,4578
2018-05-07T09:06:57.855Z,4488
2018-05-07T09:07:57.850Z,4393
2018-05-07T09:08:57.749Z,4246
2018-05-07T09:09:57.821Z,3988
2018-05-07T09:10:57.746Z,3723
2018-05-07T09:11:57.749Z,3459
2018-05-07T09:12:57.761Z,3228
2018-05-07T09:13:57.817Z,3009
2018-05-07T09:14:57.749Z,2806
2018-05-07T09:15:57.748Z,2643
2018-05-07T09:16:57.749Z,2559
2018-05-07T09:17:57.841Z,2604
2018-05-07T09:18:57.776Z,2756
2018-05-07T09:19:57.784Z,3037
2018-05-07T09:20:57.840Z,3453
2018-05-07T09:21:57.819Z,3886
2018-05-07T09:22:57.743Z,4230
2018-05-07T09:23:57.787Z,4567
2018-05-07T09:24:57.860Z,4893
2018-05-07T09:25:57.789Z,5090
2018-05-07T09:26:57.850Z,5135
2018-05-07T09:27:57.817Z,5090
2018-05-07T09:28:57.816Z,4995
2018-05-07T09:29:57.812Z,4893
2018-05-07T09:30:57.762Z,4815
2018-05-07T09:31:57.820Z,4736
2018-05-07T09:32:57.728Z,4578
2018-05-07T09:33:57.775Z,4460
2018-05-07T09:34:57.811Z,4353
2018-05-07T09:35:57.815Z,4308
2018-05-07T09:36:57.729Z,4320
2018-05-07T09:37:57.835Z,4314
2018-05-07T09:38:57.765Z,4286
2018-05-07T09:39:57.835Z,4359
2018-05-07T09:40:57.791Z,4556
2018-05-07T09:41:57.836Z,4753
2018-05-07T09:42:57.808Z,4843
2018-05-07T09:43:57.840Z,4893
2018-05-07T09:44:57.768Z,5118
2018-05-07T09:45:57.839Z,5394
2018-05-07T09:46:57.841Z,5523
2018-05-07T09:47:57.808Z,5568
2018-05-07T09:48:57.806Z,5731
2018-05-07T09:49:57.762Z,6086
2018-05-07T09:50:57.875Z,6260
2018-05-07T09:51:57.859Z,6103
2018-05-07T09:52:57.863Z,5866
2018-05-07T09:53:57.779Z,5748
2018-05-07T09:54:57.864Z,5760
2018-05-07T09:55:57.870Z,5855
2018-05-07T09:56:57.881Z,5990
2018-05-07T09:57:57.841Z,6193
2018-05-07T09:58:57.782Z,6367
2018-05-07T09:59:57.749Z,6525
2018-05-07T10:00:57.835Z,6558
2018-05-07T10:01:57.752Z,6468
2018-05-07T10:02:57.832Z,6271
2018-05-07T10:03:57.751Z,5917
2018-05-07T10:04:57.783Z,5428
2018-05-07T10:05:57.840Z,5085
2018-05-07T10:06:57.754Z,5073
2018-05-07T10:07:57.782Z,5191
2018-05-07T10:08:57.848Z,5298
2018-05-07T10:09:57.790Z,5439
2018-05-07T10:10:57.851Z,5720
2018-05-07T10:11:57.785Z,5923
2018-05-07T10:12:57.855Z,6142
2018-05-07T10:13:57.785Z,6266
2018-05-07T10:14:57.798Z,6108
2018-05-07T10:15:57.853Z,5782
2018-05-07T10:16:57.807Z,5613
2018-05-07T10:17:57.797Z,5580
2018-05-07T10:18:57.882Z,5658
2018-05-07T10:19:57.833Z,5844
2018-05-07T10:20:57.855Z,5940
2018-05-07T10:21:57.871Z,5861
2018-05-07T10:22:57.815Z,5715
2018-05-07T10:23:57.766Z,5568
2018-05-07T10:24:57.829Z,5501
2018-05-07T10:25:57.894Z,5416
2018-05-07T10:26:57.885Z,5276
2018-05-07T10:27:57.836Z,5214
2018-05-07T10:28:57.793Z,5310
2018-05-07T10:29:57.812Z,5355
2018-05-07T10:30:57.821Z,5310
2018-05-07T10:31:57.786Z,5298
2018-05-07T10:32:57.736Z,5574
2018-05-07T10:33:57.757Z,5793
2018-05-07T10:34:57.856Z,5805
2018-05-07T10:35:57.761Z,5653
2018-05-07T10:36:57.862Z,5439
2018-05-07T10:37:57.834Z,5343
2018-05-07T10:38:57.789Z,5298
2018-05-07T10:39:57.751Z,5197
2018-05-07T10:40:57.757Z,4989
2018-05-07T10:41:57.830Z,4860
2018-05-07T10:42:57.767Z,4792
2018-05-07T10:43:57.748Z,4803
2018-05-07T10:44:57.851Z,4831
2018-05-07T10:45:57.827Z,4888
2018-05-07T10:46:57.805Z,4978
2018-05-07T10:47:57.852Z,5101
2018-05-07T10:48:57.875Z,5293
2018-05-07T10:49:57.842Z,5523
2018-05-07T10:50:57.907Z,5625
2018-05-07T10:51:57.835Z,5557
2018-05-07T10:52:57.921Z,5461
2018-05-07T10:53:57.844Z,5281
2018-05-07T10:54:57.802Z,4944
2018-05-07T10:55:57.903Z,4556
2018-05-07T10:56:57.898Z,4286
2018-05-07T10:57:57.820Z,4078
2018-05-07T10:58:57.879Z,3909
2018-05-07T10:59:57.852Z,3830
2018-05-07T11:00:57.904Z,3836
2018-05-07T11:01:57.861Z,3903
2018-05-07T11:02:57.913Z,4095
2018-05-07T11:03:57.885Z,4348
2018-05-07T11:04:57.792Z,4606
2018-05-07T11:05:57.884Z,4820
2018-05-07T11:06:57.843Z,5000
2018-05-07T11:07:57.807Z,5180
2018-05-07T11:08:57.757Z,5310
2018-05-07T11:09:57.771Z,5377
2018-05-07T11:10:57.885Z,5433
2018-05-07T11:11:57.845Z,5388
2018-05-07T11:12:57.842Z,5265
2018-05-07T11:13:57.968Z,5191
2018-05-07T11:14:57.799Z,5310
2018-05-07T11:15:57.842Z,5360
2018-05-07T11:16:57.777Z,5276
2018-05-07T11:17:57.921Z,5225
2018-05-07T11:18:57.908Z,5310
2018-05-07T11:19:57.908Z,5400
2018-05-07T11:20:57.930Z,5484
2018-05-07T11:21:57.900Z,5546
2018-05-07T11:22:57.796Z,5512
2018-05-07T11:23:57.823Z,5484
2018-05-07T11:24:57.903Z,5535
2018-05-07T11:25:57.935Z,5653
2018-05-07T11:26:57.821Z,5641
2018-05-07T11:27:57.880Z,5551
2018-05-07T11:28:57.920Z,5490
2018-05-07T11:29:57.901Z,5366
2018-05-07T11:30:57.835Z,5175
2018-05-07T11:31:57.907Z,4961
2018-05-07T11:32:57.835Z,4730
2018-05-07T11:33:57.903Z,4561
2018-05-07T11:34:57.837Z,4432
2018-05-07T11:35:57.908Z,4348
2018-05-07T11:36:57.840Z,4365
2018-05-07T11:37:57.910Z,4466
2018-05-07T11:38:57.880Z,4680
2018-05-07T11:39:57.909Z,4820
2018-05-07T11:40:57.929Z,4910
2018-05-07T11:41:57.933Z,4972
2018-05-07T11:42:57.947Z,5118
2018-05-07T11:43:57.846Z,5332
2018-05-07T11:44:57.880Z,5523
2018-05-07T11:45:57.893Z,5703
2018-05-07T11:46:57.945Z,5911
2018-05-07T11:47:57.864Z,5956
2018-05-07T11:48:57.716Z,5670
2018-05-07T11:49:57.773Z,5259
2018-05-07T11:50:57.789Z,4944
2018-05-07T11:51:57.765Z,4753
2018-05-07T11:52:57.905Z,4657
2018-05-07T11:53:57.778Z,4809
2018-05-07T11:54:57.763Z,5175
2018-05-07T11:55:57.816Z,5490
2018-05-07T11:56:57.826Z,5703
2018-05-07T11:57:57.783Z,5754
2018-05-07T11:58:57.887Z,5731
2018-05-07T11:59:57.953Z,5731
2018-05-07T12:00:57.886Z,5737
2018-05-07T12:01:57.885Z,5692
2018-05-07T12:02:57.844Z,5636
2018-05-07T12:03:57.894Z,5535
2018-05-07T12:04:57.832Z,5495
2018-05-07T12:05:57.941Z,5439
2018-05-07T12:06:57.902Z,5439
2018-05-07T12:07:57.955Z,5416
2018-05-07T12:08:57.831Z,5377
2018-05-07T12:09:57.891Z,5371
2018-05-07T12:10:57.957Z,5371
2018-05-07T12:11:57.947Z,5394
2018-05-07T12:12:57.831Z,5428
2018-05-07T12:13:57.888Z,5428
2018-05-07T12:14:57.898Z,5428
2018-05-07T12:15:57.932Z,5456
2018-05-07T12:16:57.840Z,5467
2018-05-07T12:17:57.893Z,5377
2018-05-07T12:18:57.972Z,5175
2018-05-07T12:19:57.912Z,4905
2018-05-07T12:20:57.912Z,4561
2018-05-07T12:21:57.950Z,4286
2018-05-07T12:22:57.854Z,4033
2018-05-07T12:23:57.841Z,3909
2018-05-07T12:24:57.914Z,3965
2018-05-07T12:25:57.836Z,4196
2018-05-07T12:26:57.962Z,4410
2018-05-07T12:27:57.968Z,4443
2018-05-07T12:28:57.935Z,4426
2018-05-07T12:29:57.871Z,4426
2018-05-07T12:30:57.885Z,4415
2018-05-07T12:31:58.035Z,4376
2018-05-07T12:32:57.882Z,4455
2018-05-07T12:33:57.940Z,4623
2018-05-07T12:34:57.879Z,4860
2018-05-07T12:35:57.950Z,5017
2018-05-07T12:36:57.881Z,5028
2018-05-07T12:37:57.873Z,4921
2018-05-07T12:38:58.008Z,4837
2018-05-07T12:39:57.923Z,4786
2018-05-07T12:40:57.971Z,4786
2018-05-07T12:41:57.977Z,4741
2018-05-07T12:42:57.908Z,4680
2018-05-07T12:43:57.984Z,4668
2018-05-07T12:44:57.952Z,4674
2018-05-07T12:45:57.988Z,4680
2018-05-07T12:46:57.952Z,4657
2018-05-07T12:47:57.949Z,4584
2018-05-07T12:48:57.984Z,4494
2018-05-07T12:49:57.913Z,4421
2018-05-07T12:50:57.958Z,4438
2018-05-07T12:51:57.960Z,4483
2018-05-07T12:52:57.888Z,4584
2018-05-07T12:53:57.958Z,4685
2018-05-07T12:54:57.887Z,4702
2018-05-07T12:55:57.891Z,4736
2018-05-07T12:56:57.891Z,4860
2018-05-07T12:57:57.890Z,4933
2018-05-07T12:58:57.993Z,4860
2018-05-07T12:59:58.000Z,4674
2018-05-07T13:00:57.992Z,4556
2018-05-07T13:01:57.995Z,4545
2018-05-07T13:02:57.938Z,4556
2018-05-07T13:03:57.863Z,4528
2018-05-07T13:04:57.976Z,4471
2018-05-07T13:05:57.988Z,4455
2018-05-07T13:06:57.966Z,4466
2018-05-07T13:07:57.866Z,4415
2018-05-07T13:08:57.965Z,4381
2018-05-07T13:09:57.927Z,4398
2018-05-07T13:10:58.000Z,4438
2018-05-07T13:11:57.929Z,4500
2018-05-07T13:12:58.076Z,4494
2018-05-07T13:13:57.885Z,4477
2018-05-07T13:14:57.972Z,4511
2018-05-07T13:15:57.929Z,4601
2018-05-07T13:16:57.998Z,4640
2018-05-07T13:17:57.967Z,4618
2018-05-07T13:18:57.970Z,4651
2018-05-07T13:19:57.971Z,4578
2018-05-07T13:20:57.935Z,4561
2018-05-07T13:21:57.906Z,4505
2018-05-07T13:22:57.978Z,4421
2018-05-07T13:23:57.913Z,4314
2018-05-07T13:24:58.044Z,4179
2018-05-07T13:25:57.912Z,4066
2018-05-07T13:26:57.973Z,4021
2018-05-07T13:27:57.981Z,3982
2018-05-07T13:28:57.961Z,3943
2018-05-07T13:29:57.943Z,3892
2018-05-07T13:30:58.016Z,3808
2018-05-07T13:31:57.901Z,3729
2018-05-07T13:32:57.947Z,3633
2018-05-07T13:33:58.000Z,3493
2018-05-07T13:34:57.951Z,3352
2018-05-07T13:35:57.949Z,3307
2018-05-07T13:36:57.957Z,3391
2018-05-07T13:37:58.006Z,3555
2018-05-07T13:38:57.981Z,3729
2018-05-07T13:39:57.916Z,3864
2018-05-07T13:40:57.987Z,3864
2018-05-07T13:41:57.919Z,3763
2018-05-07T13:42:57.917Z,3667
2018-05-07T13:43:57.992Z,3515
2018-05-07T13:44:57.922Z,3403